sensor_id;sensor_type;location;lat;lon;timestamp;P1;durP1;ratioP1;P2;durP2;ratioP2
50976;SDS011;36992;48.200;12.418;2024-01-30T00:01:01;5.95;;;2.60;;
50976;SDS011;36992;48.200;12.418;2024-01-30T00:03:28;5.38;;;2.78;;
50976;SDS011;36992;48.200;12.418;2024-01-30T00:05:55;6.53;;;2.65;;
50976;SDS011;36992;48.200;12.418;2024-01-30T00:08:22;6.05;;;3.00;;
50976;SDS011;36992;48.200;12.418;2024-01-30T00:10:48;7.13;;;3.25;;
50976;SDS011;36992;48.200;12.418;2024-01-30T00:13:15;6.03;;;2.92;;
50976;SDS011;36992;48.200;12.418;2024-01-30T00:15:44;5.30;;;2.58;;
50976;SDS011;36992;48.200;12.418;2024-01-30T00:18:10;5.35;;;2.50;;
50976;SDS011;36992;48.200;12.418;2024-01-30T00:20:38;9.85;;;3.90;;
50976;SDS011;36992;48.200;12.418;2024-01-30T00:23:05;5.57;;;2.00;;
50976;SDS011;36992;48.200;12.418;2024-01-30T00:25:31;5.47;;;2.55;;
50976;SDS011;36992;48.200;12.418;2024-01-30T00:27:58;5.15;;;2.40;;
50976;SDS011;36992;48.200;12.418;2024-01-30T00:30:24;7.72;;;3.05;;
50976;SDS011;36992;48.200;12.418;2024-01-30T00:32:51;6.78;;;2.63;;
50976;SDS011;36992;48.200;12.418;2024-01-30T00:35:17;6.55;;;2.90;;
50976;SDS011;36992;48.200;12.418;2024-01-30T00:37:45;6.28;;;3.35;;
50976;SDS011;36992;48.200;12.418;2024-01-30T00:40:12;5.90;;;2.97;;
50976;SDS011;36992;48.200;12.418;2024-01-30T00:42:40;7.57;;;3.47;;
50976;SDS011;36992;48.200;12.418;2024-01-30T00:45:11;9.13;;;3.45;;
50976;SDS011;36992;48.200;12.418;2024-01-30T00:47:38;6.68;;;2.80;;
50976;SDS011;36992;48.200;12.418;2024-01-30T00:50:05;7.05;;;2.55;;
50976;SDS011;36992;48.200;12.418;2024-01-30T00:52:32;6.72;;;3.22;;
50976;SDS011;36992;48.200;12.418;2024-01-30T00:55:00;7.47;;;4.07;;
50976;SDS011;36992;48.200;12.418;2024-01-30T00:57:26;7.68;;;3.33;;
50976;SDS011;36992;48.200;12.418;2024-01-30T00:59:53;8.45;;;3.60;;
50976;SDS011;36992;48.200;12.418;2024-01-30T01:02:19;6.78;;;2.95;;
50976;SDS011;36992;48.200;12.418;2024-01-30T01:04:46;7.75;;;3.30;;
50976;SDS011;36992;48.200;12.418;2024-01-30T01:07:12;7.32;;;3.40;;
50976;SDS011;36992;48.200;12.418;2024-01-30T01:09:39;8.65;;;4.57;;
50976;SDS011;36992;48.200;12.418;2024-01-30T01:12:07;6.30;;;3.40;;
50976;SDS011;36992;48.200;12.418;2024-01-30T01:14:33;8.38;;;3.75;;
50976;SDS011;36992;48.200;12.418;2024-01-30T01:17:01;6.07;;;2.80;;
50976;SDS011;36992;48.200;12.418;2024-01-30T01:19:27;6.53;;;3.22;;
50976;SDS011;36992;48.200;12.418;2024-01-30T01:21:54;8.30;;;3.50;;
50976;SDS011;36992;48.200;12.418;2024-01-30T01:24:20;5.03;;;2.55;;
50976;SDS011;36992;48.200;12.418;2024-01-30T01:26:47;6.78;;;3.20;;
50976;SDS011;36992;48.200;12.418;2024-01-30T01:29:15;7.18;;;3.00;;
50976;SDS011;36992;48.200;12.418;2024-01-30T01:31:41;6.78;;;3.40;;
50976;SDS011;36992;48.200;12.418;2024-01-30T01:34:08;6.80;;;3.20;;
50976;SDS011;36992;48.200;12.418;2024-01-30T01:36:35;8.88;;;3.40;;
50976;SDS011;36992;48.200;12.418;2024-01-30T01:39:01;5.95;;;2.95;;
50976;SDS011;36992;48.200;12.418;2024-01-30T01:41:29;7.82;;;3.13;;
50976;SDS011;36992;48.200;12.418;2024-01-30T01:43:56;6.82;;;3.67;;
50976;SDS011;36992;48.200;12.418;2024-01-30T01:46:25;7.18;;;3.55;;
50976;SDS011;36992;48.200;12.418;2024-01-30T01:48:53;5.53;;;3.20;;
50976;SDS011;36992;48.200;12.418;2024-01-30T01:51:20;8.23;;;2.95;;
50976;SDS011;36992;48.200;12.418;2024-01-30T01:53:48;8.65;;;3.72;;
50976;SDS011;36992;48.200;12.418;2024-01-30T01:56:14;6.72;;;3.38;;
50976;SDS011;36992;48.200;12.418;2024-01-30T01:58:41;6.97;;;2.88;;
50976;SDS011;36992;48.200;12.418;2024-01-30T02:01:08;6.45;;;3.55;;
50976;SDS011;36992;48.200;12.418;2024-01-30T02:03:36;6.25;;;3.45;;
50976;SDS011;36992;48.200;12.418;2024-01-30T02:06:03;7.00;;;3.45;;
50976;SDS011;36992;48.200;12.418;2024-01-30T02:08:30;5.50;;;3.10;;
50976;SDS011;36992;48.200;12.418;2024-01-30T02:10:57;7.43;;;3.13;;
50976;SDS011;36992;48.200;12.418;2024-01-30T02:13:23;5.47;;;3.13;;
50976;SDS011;36992;48.200;12.418;2024-01-30T02:15:50;5.55;;;2.78;;
50976;SDS011;36992;48.200;12.418;2024-01-30T02:18:17;8.43;;;3.33;;
50976;SDS011;36992;48.200;12.418;2024-01-30T02:20:44;4.68;;;2.42;;
50976;SDS011;36992;48.200;12.418;2024-01-30T02:23:12;6.22;;;3.70;;
50976;SDS011;36992;48.200;12.418;2024-01-30T02:25:41;4.50;;;2.00;;
50976;SDS011;36992;48.200;12.418;2024-01-30T02:28:09;6.20;;;3.25;;
50976;SDS011;36992;48.200;12.418;2024-01-30T02:30:36;6.03;;;3.10;;
50976;SDS011;36992;48.200;12.418;2024-01-30T02:33:02;5.43;;;2.63;;
50976;SDS011;36992;48.200;12.418;2024-01-30T02:35:29;5.95;;;3.10;;
50976;SDS011;36992;48.200;12.418;2024-01-30T02:37:55;5.85;;;2.70;;
50976;SDS011;36992;48.200;12.418;2024-01-30T02:40:23;8.25;;;3.20;;
50976;SDS011;36992;48.200;12.418;2024-01-30T02:42:50;7.45;;;2.50;;
50976;SDS011;36992;48.200;12.418;2024-01-30T02:45:16;5.25;;;2.78;;
50976;SDS011;36992;48.200;12.418;2024-01-30T02:47:43;5.70;;;2.90;;
50976;SDS011;36992;48.200;12.418;2024-01-30T02:50:09;5.35;;;3.53;;
50976;SDS011;36992;48.200;12.418;2024-01-30T02:52:36;4.85;;;2.45;;
50976;SDS011;36992;48.200;12.418;2024-01-30T02:55:03;5.13;;;2.63;;
50976;SDS011;36992;48.200;12.418;2024-01-30T02:57:31;5.28;;;3.03;;
50976;SDS011;36992;48.200;12.418;2024-01-30T02:59:58;6.35;;;2.97;;
50976;SDS011;36992;48.200;12.418;2024-01-30T03:02:24;7.72;;;2.92;;
50976;SDS011;36992;48.200;12.418;2024-01-30T03:04:51;6.50;;;3.20;;
50976;SDS011;36992;48.200;12.418;2024-01-30T03:07:17;6.82;;;3.10;;
50976;SDS011;36992;48.200;12.418;2024-01-30T03:09:44;5.90;;;2.70;;
50976;SDS011;36992;48.200;12.418;2024-01-30T03:12:10;6.53;;;3.17;;
50976;SDS011;36992;48.200;12.418;2024-01-30T03:14:38;5.93;;;2.95;;
50976;SDS011;36992;48.200;12.418;2024-01-30T03:17:05;6.63;;;3.05;;
50976;SDS011;36992;48.200;12.418;2024-01-30T03:19:31;6.78;;;3.13;;
50976;SDS011;36992;48.200;12.418;2024-01-30T03:21:58;5.85;;;3.50;;
50976;SDS011;36992;48.200;12.418;2024-01-30T03:24:25;6.05;;;3.22;;
50976;SDS011;36992;48.200;12.418;2024-01-30T03:26:51;6.15;;;2.55;;
50976;SDS011;36992;48.200;12.418;2024-01-30T03:29:18;6.40;;;2.63;;
50976;SDS011;36992;48.200;12.418;2024-01-30T03:31:46;4.57;;;2.80;;
50976;SDS011;36992;48.200;12.418;2024-01-30T03:34:12;4.85;;;2.85;;
50976;SDS011;36992;48.200;12.418;2024-01-30T03:36:39;7.57;;;4.10;;
50976;SDS011;36992;48.200;12.418;2024-01-30T03:39:05;9.30;;;3.40;;
50976;SDS011;36992;48.200;12.418;2024-01-30T03:41:32;7.13;;;3.10;;
50976;SDS011;36992;48.200;12.418;2024-01-30T03:43:58;6.15;;;3.03;;
50976;SDS011;36992;48.200;12.418;2024-01-30T03:46:25;6.50;;;3.35;;
50976;SDS011;36992;48.200;12.418;2024-01-30T03:48:53;4.53;;;2.47;;
50976;SDS011;36992;48.200;12.418;2024-01-30T03:51:19;7.28;;;3.00;;
50976;SDS011;36992;48.200;12.418;2024-01-30T03:53:46;5.00;;;2.90;;
50976;SDS011;36992;48.200;12.418;2024-01-30T03:56:12;5.85;;;2.63;;
50976;SDS011;36992;48.200;12.418;2024-01-30T03:58:39;7.43;;;4.00;;
50976;SDS011;36992;48.200;12.418;2024-01-30T04:01:06;5.72;;;3.35;;
50976;SDS011;36992;48.200;12.418;2024-01-30T04:03:33;5.63;;;2.58;;
50976;SDS011;36992;48.200;12.418;2024-01-30T04:06:01;7.07;;;3.05;;
50976;SDS011;36992;48.200;12.418;2024-01-30T04:08:27;7.22;;;3.13;;
50976;SDS011;36992;48.200;12.418;2024-01-30T04:10:54;5.45;;;2.40;;
50976;SDS011;36992;48.200;12.418;2024-01-30T04:13:20;5.75;;;3.20;;
50976;SDS011;36992;48.200;12.418;2024-01-30T04:15:46;7.35;;;3.13;;
50976;SDS011;36992;48.200;12.418;2024-01-30T04:18:13;5.85;;;2.38;;
50976;SDS011;36992;48.200;12.418;2024-01-30T04:20:39;6.55;;;2.75;;
50976;SDS011;36992;48.200;12.418;2024-01-30T04:23:07;5.60;;;2.95;;
50976;SDS011;36992;48.200;12.418;2024-01-30T04:25:34;8.52;;;3.70;;
50976;SDS011;36992;48.200;12.418;2024-01-30T04:28:00;4.72;;;2.72;;
50976;SDS011;36992;48.200;12.418;2024-01-30T04:30:27;6.55;;;2.88;;
50976;SDS011;36992;48.200;12.418;2024-01-30T04:32:53;6.20;;;3.50;;
50976;SDS011;36992;48.200;12.418;2024-01-30T04:35:20;6.00;;;3.42;;
50976;SDS011;36992;48.200;12.418;2024-01-30T04:37:49;6.00;;;3.13;;
50976;SDS011;36992;48.200;12.418;2024-01-30T04:40:19;6.57;;;2.70;;
50976;SDS011;36992;48.200;12.418;2024-01-30T04:42:46;7.18;;;3.42;;
50976;SDS011;36992;48.200;12.418;2024-01-30T04:45:12;5.40;;;2.72;;
50976;SDS011;36992;48.200;12.418;2024-01-30T04:47:39;6.35;;;3.25;;
50976;SDS011;36992;48.200;12.418;2024-01-30T04:50:06;6.85;;;2.83;;
50976;SDS011;36992;48.200;12.418;2024-01-30T04:52:33;8.15;;;3.25;;
50976;SDS011;36992;48.200;12.418;2024-01-30T04:55:00;7.25;;;2.60;;
50976;SDS011;36992;48.200;12.418;2024-01-30T04:57:28;5.32;;;2.58;;
50976;SDS011;36992;48.200;12.418;2024-01-30T04:59:56;6.25;;;2.75;;
50976;SDS011;36992;48.200;12.418;2024-01-30T05:02:22;6.70;;;2.67;;
50976;SDS011;36992;48.200;12.418;2024-01-30T05:04:48;5.32;;;2.53;;
50976;SDS011;36992;48.200;12.418;2024-01-30T05:07:15;6.03;;;2.83;;
50976;SDS011;36992;48.200;12.418;2024-01-30T05:09:41;6.35;;;2.33;;
50976;SDS011;36992;48.200;12.418;2024-01-30T05:12:08;6.70;;;3.40;;
50976;SDS011;36992;48.200;12.418;2024-01-30T05:14:36;6.63;;;3.00;;
50976;SDS011;36992;48.200;12.418;2024-01-30T05:17:02;10.13;;;3.88;;
50976;SDS011;36992;48.200;12.418;2024-01-30T05:19:29;9.07;;;3.55;;
50976;SDS011;36992;48.200;12.418;2024-01-30T05:21:55;5.93;;;3.63;;
50976;SDS011;36992;48.200;12.418;2024-01-30T05:24:22;6.22;;;3.20;;
50976;SDS011;36992;48.200;12.418;2024-01-30T05:26:48;4.57;;;2.33;;
50976;SDS011;36992;48.200;12.418;2024-01-30T05:29:16;4.38;;;2.47;;
50976;SDS011;36992;48.200;12.418;2024-01-30T05:31:44;5.00;;;2.75;;
50976;SDS011;36992;48.200;12.418;2024-01-30T05:34:10;4.65;;;2.22;;
50976;SDS011;36992;48.200;12.418;2024-01-30T05:36:37;6.72;;;3.55;;
50976;SDS011;36992;48.200;12.418;2024-01-30T05:39:03;5.88;;;2.90;;
50976;SDS011;36992;48.200;12.418;2024-01-30T05:41:30;6.22;;;2.78;;
50976;SDS011;36992;48.200;12.418;2024-01-30T05:43:56;5.20;;;2.60;;
50976;SDS011;36992;48.200;12.418;2024-01-30T05:46:23;7.80;;;2.90;;
50976;SDS011;36992;48.200;12.418;2024-01-30T05:48:51;5.97;;;2.75;;
50976;SDS011;36992;48.200;12.418;2024-01-30T05:51:18;5.55;;;3.08;;
50976;SDS011;36992;48.200;12.418;2024-01-30T05:53:44;5.20;;;2.60;;
50976;SDS011;36992;48.200;12.418;2024-01-30T05:56:11;5.13;;;2.50;;
50976;SDS011;36992;48.200;12.418;2024-01-30T05:58:37;6.75;;;3.22;;
50976;SDS011;36992;48.200;12.418;2024-01-30T06:01:06;5.65;;;2.53;;
50976;SDS011;36992;48.200;12.418;2024-01-30T06:03:33;4.65;;;2.30;;
50976;SDS011;36992;48.200;12.418;2024-01-30T06:06:01;4.95;;;2.60;;
50976;SDS011;36992;48.200;12.418;2024-01-30T06:08:27;5.07;;;2.88;;
50976;SDS011;36992;48.200;12.418;2024-01-30T06:10:54;5.53;;;2.63;;
50976;SDS011;36992;48.200;12.418;2024-01-30T06:13:20;6.57;;;2.92;;
50976;SDS011;36992;48.200;12.418;2024-01-30T06:15:47;4.45;;;2.53;;
50976;SDS011;36992;48.200;12.418;2024-01-30T06:18:13;4.88;;;2.75;;
50976;SDS011;36992;48.200;12.418;2024-01-30T06:20:40;5.18;;;2.80;;
50976;SDS011;36992;48.200;12.418;2024-01-30T06:23:08;4.65;;;2.75;;
50976;SDS011;36992;48.200;12.418;2024-01-30T06:25:34;6.05;;;3.05;;
50976;SDS011;36992;48.200;12.418;2024-01-30T06:28:01;6.75;;;3.95;;
50976;SDS011;36992;48.200;12.418;2024-01-30T06:30:27;4.88;;;2.60;;
50976;SDS011;36992;48.200;12.418;2024-01-30T06:32:54;7.57;;;2.75;;
50976;SDS011;36992;48.200;12.418;2024-01-30T06:35:20;7.43;;;3.13;;
50976;SDS011;36992;48.200;12.418;2024-01-30T06:37:47;6.47;;;3.08;;
50976;SDS011;36992;48.200;12.418;2024-01-30T06:40:15;6.25;;;2.58;;
50976;SDS011;36992;48.200;12.418;2024-01-30T06:42:41;5.75;;;2.40;;
50976;SDS011;36992;48.200;12.418;2024-01-30T06:45:08;3.58;;;1.92;;
50976;SDS011;36992;48.200;12.418;2024-01-30T06:47:35;9.18;;;2.88;;
50976;SDS011;36992;48.200;12.418;2024-01-30T06:50:02;5.47;;;2.65;;
50976;SDS011;36992;48.200;12.418;2024-01-30T06:52:28;4.63;;;2.42;;
50976;SDS011;36992;48.200;12.418;2024-01-30T06:54:55;4.90;;;2.42;;
50976;SDS011;36992;48.200;12.418;2024-01-30T06:57:22;6.35;;;3.05;;
50976;SDS011;36992;48.200;12.418;2024-01-30T06:59:49;6.72;;;3.05;;
50976;SDS011;36992;48.200;12.418;2024-01-30T07:02:15;5.15;;;2.50;;
50976;SDS011;36992;48.200;12.418;2024-01-30T07:04:42;5.88;;;3.53;;
50976;SDS011;36992;48.200;12.418;2024-01-30T07:07:08;5.93;;;2.85;;
50976;SDS011;36992;48.200;12.418;2024-01-30T07:09:37;5.20;;;2.47;;
50976;SDS011;36992;48.200;12.418;2024-01-30T07:12:04;4.45;;;2.35;;
50976;SDS011;36992;48.200;12.418;2024-01-30T07:14:33;6.20;;;2.63;;
50976;SDS011;36992;48.200;12.418;2024-01-30T07:17:00;4.85;;;2.83;;
50976;SDS011;36992;48.200;12.418;2024-01-30T07:19:26;4.88;;;2.55;;
50976;SDS011;36992;48.200;12.418;2024-01-30T07:21:53;4.32;;;2.30;;
50976;SDS011;36992;48.200;12.418;2024-01-30T07:24:19;8.63;;;2.40;;
50976;SDS011;36992;48.200;12.418;2024-01-30T07:26:46;6.20;;;2.95;;
50976;SDS011;36992;48.200;12.418;2024-01-30T07:29:12;4.32;;;2.78;;
50976;SDS011;36992;48.200;12.418;2024-01-30T07:31:40;4.65;;;2.28;;
50976;SDS011;36992;48.200;12.418;2024-01-30T07:34:07;7.65;;;3.20;;
50976;SDS011;36992;48.200;12.418;2024-01-30T07:36:33;4.75;;;2.58;;
50976;SDS011;36992;48.200;12.418;2024-01-30T07:39:00;7.00;;;2.95;;
50976;SDS011;36992;48.200;12.418;2024-01-30T07:41:26;5.63;;;2.28;;
50976;SDS011;36992;48.200;12.418;2024-01-30T07:43:53;5.20;;;2.47;;
50976;SDS011;36992;48.200;12.418;2024-01-30T07:46:19;5.43;;;2.50;;
50976;SDS011;36992;48.200;12.418;2024-01-30T07:48:47;6.47;;;2.83;;
50976;SDS011;36992;48.200;12.418;2024-01-30T07:51:13;5.18;;;2.45;;
50976;SDS011;36992;48.200;12.418;2024-01-30T07:53:40;4.10;;;1.98;;
50976;SDS011;36992;48.200;12.418;2024-01-30T07:56:07;3.83;;;2.00;;
50976;SDS011;36992;48.200;12.418;2024-01-30T07:58:33;6.57;;;2.95;;
50976;SDS011;36992;48.200;12.418;2024-01-30T08:01:00;6.13;;;2.53;;
50976;SDS011;36992;48.200;12.418;2024-01-30T08:03:26;4.38;;;2.25;;
50976;SDS011;36992;48.200;12.418;2024-01-30T08:05:54;3.80;;;1.88;;
50976;SDS011;36992;48.200;12.418;2024-01-30T08:08:21;4.65;;;1.80;;
50976;SDS011;36992;48.200;12.418;2024-01-30T08:10:47;3.90;;;1.85;;
50976;SDS011;36992;48.200;12.418;2024-01-30T08:13:14;4.70;;;1.90;;
50976;SDS011;36992;48.200;12.418;2024-01-30T08:15:41;4.75;;;2.38;;
50976;SDS011;36992;48.200;12.418;2024-01-30T08:18:07;3.72;;;1.83;;
50976;SDS011;36992;48.200;12.418;2024-01-30T08:20:34;4.53;;;2.15;;
50976;SDS011;36992;48.200;12.418;2024-01-30T08:23:02;4.70;;;2.10;;
50976;SDS011;36992;48.200;12.418;2024-01-30T08:25:29;5.47;;;2.22;;
50976;SDS011;36992;48.200;12.418;2024-01-30T08:27:55;4.95;;;2.00;;
50976;SDS011;36992;48.200;12.418;2024-01-30T08:30:22;3.75;;;1.85;;
50976;SDS011;36992;48.200;12.418;2024-01-30T08:32:48;6.55;;;2.08;;
50976;SDS011;36992;48.200;12.418;2024-01-30T08:35:15;2.97;;;1.50;;
50976;SDS011;36992;48.200;12.418;2024-01-30T08:37:41;4.13;;;1.98;;
50976;SDS011;36992;48.200;12.418;2024-01-30T08:40:10;3.95;;;1.85;;
50976;SDS011;36992;48.200;12.418;2024-01-30T08:42:36;4.72;;;2.78;;
50976;SDS011;36992;48.200;12.418;2024-01-30T08:45:03;5.45;;;1.63;;
50976;SDS011;36992;48.200;12.418;2024-01-30T08:47:30;3.92;;;2.10;;
50976;SDS011;36992;48.200;12.418;2024-01-30T08:49:58;3.80;;;1.45;;
50976;SDS011;36992;48.200;12.418;2024-01-30T08:52:24;3.67;;;1.88;;
50976;SDS011;36992;48.200;12.418;2024-01-30T08:54:51;3.50;;;1.48;;
50976;SDS011;36992;48.200;12.418;2024-01-30T08:57:19;4.57;;;1.77;;
50976;SDS011;36992;48.200;12.418;2024-01-30T08:59:45;3.47;;;1.60;;
50976;SDS011;36992;48.200;12.418;2024-01-30T09:02:13;4.43;;;1.88;;
50976;SDS011;36992;48.200;12.418;2024-01-30T09:04:41;4.43;;;2.28;;
50976;SDS011;36992;48.200;12.418;2024-01-30T09:07:08;3.22;;;1.83;;
50976;SDS011;36992;48.200;12.418;2024-01-30T09:09:35;4.22;;;2.10;;
50976;SDS011;36992;48.200;12.418;2024-01-30T09:12:02;3.47;;;1.92;;
50976;SDS011;36992;48.200;12.418;2024-01-30T09:14:33;3.42;;;1.48;;
50976;SDS011;36992;48.200;12.418;2024-01-30T09:17:00;3.30;;;1.75;;
50976;SDS011;36992;48.200;12.418;2024-01-30T09:19:28;5.03;;;1.77;;
50976;SDS011;36992;48.200;12.418;2024-01-30T09:21:54;5.85;;;2.30;;
50976;SDS011;36992;48.200;12.418;2024-01-30T09:24:21;4.65;;;2.38;;
50976;SDS011;36992;48.200;12.418;2024-01-30T09:26:47;3.45;;;1.80;;
50976;SDS011;36992;48.200;12.418;2024-01-30T09:29:14;4.28;;;1.90;;
50976;SDS011;36992;48.200;12.418;2024-01-30T09:31:43;6.07;;;1.95;;
50976;SDS011;36992;48.200;12.418;2024-01-30T09:34:11;3.92;;;1.90;;
50976;SDS011;36992;48.200;12.418;2024-01-30T09:36:37;3.78;;;1.90;;
50976;SDS011;36992;48.200;12.418;2024-01-30T09:39:04;4.18;;;1.65;;
50976;SDS011;36992;48.200;12.418;2024-01-30T09:41:32;4.93;;;1.90;;
50976;SDS011;36992;48.200;12.418;2024-01-30T09:43:59;4.43;;;2.10;;
50976;SDS011;36992;48.200;12.418;2024-01-30T09:46:28;4.50;;;2.35;;
50976;SDS011;36992;48.200;12.418;2024-01-30T09:48:59;5.05;;;2.40;;
50976;SDS011;36992;48.200;12.418;2024-01-30T09:51:28;3.88;;;2.45;;
50976;SDS011;36992;48.200;12.418;2024-01-30T09:53:56;4.65;;;2.15;;
50976;SDS011;36992;48.200;12.418;2024-01-30T09:56:22;4.18;;;1.67;;
50976;SDS011;36992;48.200;12.418;2024-01-30T09:58:49;5.47;;;1.92;;
50976;SDS011;36992;48.200;12.418;2024-01-30T10:01:15;4.07;;;2.00;;
50976;SDS011;36992;48.200;12.418;2024-01-30T10:03:43;5.18;;;2.03;;
50976;SDS011;36992;48.200;12.418;2024-01-30T10:06:11;3.70;;;1.95;;
50976;SDS011;36992;48.200;12.418;2024-01-30T10:08:38;4.00;;;2.13;;
50976;SDS011;36992;48.200;12.418;2024-01-30T10:11:05;5.32;;;2.78;;
50976;SDS011;36992;48.200;12.418;2024-01-30T10:13:31;7.15;;;2.20;;
50976;SDS011;36992;48.200;12.418;2024-01-30T10:15:58;6.18;;;2.08;;
50976;SDS011;36992;48.200;12.418;2024-01-30T10:18:28;5.40;;;2.15;;
50976;SDS011;36992;48.200;12.418;2024-01-30T10:20:54;3.80;;;2.00;;
50976;SDS011;36992;48.200;12.418;2024-01-30T10:23:22;4.60;;;2.42;;
50976;SDS011;36992;48.200;12.418;2024-01-30T10:25:50;5.32;;;1.88;;
50976;SDS011;36992;48.200;12.418;2024-01-30T10:28:17;4.03;;;1.67;;
50976;SDS011;36992;48.200;12.418;2024-01-30T10:30:43;4.10;;;1.83;;
50976;SDS011;36992;48.200;12.418;2024-01-30T10:33:10;5.78;;;2.25;;
50976;SDS011;36992;48.200;12.418;2024-01-30T10:35:36;3.53;;;1.52;;
50976;SDS011;36992;48.200;12.418;2024-01-30T10:38:03;3.25;;;1.60;;
50976;SDS011;36992;48.200;12.418;2024-01-30T10:40:36;6.32;;;2.03;;
50976;SDS011;36992;48.200;12.418;2024-01-30T10:43:04;4.85;;;1.90;;
50976;SDS011;36992;48.200;12.418;2024-01-30T10:45:33;5.57;;;2.20;;
50976;SDS011;36992;48.200;12.418;2024-01-30T10:48:03;4.38;;;2.42;;
50976;SDS011;36992;48.200;12.418;2024-01-30T10:50:32;4.47;;;1.40;;
50976;SDS011;36992;48.200;12.418;2024-01-30T10:53:00;3.45;;;1.52;;
50976;SDS011;36992;48.200;12.418;2024-01-30T10:55:28;4.70;;;2.78;;
50976;SDS011;36992;48.200;12.418;2024-01-30T10:57:57;3.28;;;1.55;;
50976;SDS011;36992;48.200;12.418;2024-01-30T11:00:24;3.88;;;1.83;;
50976;SDS011;36992;48.200;12.418;2024-01-30T11:02:51;6.00;;;1.95;;
50976;SDS011;36992;48.200;12.418;2024-01-30T11:05:23;4.10;;;1.98;;
50976;SDS011;36992;48.200;12.418;2024-01-30T11:07:51;3.05;;;1.50;;
50976;SDS011;36992;48.200;12.418;2024-01-30T11:10:18;4.40;;;1.83;;
50976;SDS011;36992;48.200;12.418;2024-01-30T11:12:45;5.63;;;2.30;;
50976;SDS011;36992;48.200;12.418;2024-01-30T11:15:14;5.25;;;2.15;;
50976;SDS011;36992;48.200;12.418;2024-01-30T11:17:42;4.72;;;2.22;;
50976;SDS011;36992;48.200;12.418;2024-01-30T11:20:10;2.83;;;1.65;;
50976;SDS011;36992;48.200;12.418;2024-01-30T11:22:40;3.63;;;1.67;;
50976;SDS011;36992;48.200;12.418;2024-01-30T11:25:10;5.72;;;2.17;;
50976;SDS011;36992;48.200;12.418;2024-01-30T11:27:37;4.68;;;2.38;;
50976;SDS011;36992;48.200;12.418;2024-01-30T11:30:05;4.47;;;2.15;;
50976;SDS011;36992;48.200;12.418;2024-01-30T11:32:34;4.10;;;1.90;;
50976;SDS011;36992;48.200;12.418;2024-01-30T11:35:02;5.25;;;2.20;;
50976;SDS011;36992;48.200;12.418;2024-01-30T11:37:30;7.63;;;2.45;;
50976;SDS011;36992;48.200;12.418;2024-01-30T11:39:57;4.18;;;2.13;;
50976;SDS011;36992;48.200;12.418;2024-01-30T11:42:24;5.82;;;2.80;;
50976;SDS011;36992;48.200;12.418;2024-01-30T11:44:53;4.20;;;2.15;;
50976;SDS011;36992;48.200;12.418;2024-01-30T11:47:19;5.32;;;1.90;;
50976;SDS011;36992;48.200;12.418;2024-01-30T11:49:47;4.32;;;2.03;;
50976;SDS011;36992;48.200;12.418;2024-01-30T11:52:14;5.10;;;3.20;;
50976;SDS011;36992;48.200;12.418;2024-01-30T11:54:41;5.63;;;2.40;;
50976;SDS011;36992;48.200;12.418;2024-01-30T11:57:07;6.50;;;2.50;;
50976;SDS011;36992;48.200;12.418;2024-01-30T11:59:34;6.03;;;2.50;;
50976;SDS011;36992;48.200;12.418;2024-01-30T12:02:01;5.00;;;2.72;;
50976;SDS011;36992;48.200;12.418;2024-01-30T12:04:28;4.65;;;2.08;;
50976;SDS011;36992;48.200;12.418;2024-01-30T12:06:56;4.05;;;2.03;;
50976;SDS011;36992;48.200;12.418;2024-01-30T12:09:23;5.68;;;2.30;;
50976;SDS011;36992;48.200;12.418;2024-01-30T12:11:49;5.55;;;2.47;;
50976;SDS011;36992;48.200;12.418;2024-01-30T12:14:16;4.68;;;2.42;;
50976;SDS011;36992;48.200;12.418;2024-01-30T12:16:47;6.10;;;2.58;;
50976;SDS011;36992;48.200;12.418;2024-01-30T12:19:20;7.22;;;2.78;;
50976;SDS011;36992;48.200;12.418;2024-01-30T12:21:53;4.68;;;2.50;;
50976;SDS011;36992;48.200;12.418;2024-01-30T12:24:21;5.03;;;2.50;;
50976;SDS011;36992;48.200;12.418;2024-01-30T12:26:48;6.15;;;2.58;;
50976;SDS011;36992;48.200;12.418;2024-01-30T12:29:15;5.28;;;2.35;;
50976;SDS011;36992;48.200;12.418;2024-01-30T12:31:41;6.55;;;2.80;;
50976;SDS011;36992;48.200;12.418;2024-01-30T12:34:08;4.97;;;2.80;;
50976;SDS011;36992;48.200;12.418;2024-01-30T12:36:35;3.83;;;1.98;;
50976;SDS011;36992;48.200;12.418;2024-01-30T12:39:02;5.75;;;2.25;;
50976;SDS011;36992;48.200;12.418;2024-01-30T12:41:30;5.47;;;2.33;;
50976;SDS011;36992;48.200;12.418;2024-01-30T12:43:57;5.78;;;2.53;;
50976;SDS011;36992;48.200;12.418;2024-01-30T12:46:25;5.60;;;2.05;;
50976;SDS011;36992;48.200;12.418;2024-01-30T12:48:53;5.53;;;1.85;;
50976;SDS011;36992;48.200;12.418;2024-01-30T12:51:20;5.70;;;2.08;;
50976;SDS011;36992;48.200;12.418;2024-01-30T12:53:46;3.47;;;1.83;;
50976;SDS011;36992;48.200;12.418;2024-01-30T12:56:13;4.30;;;1.70;;
50976;SDS011;36992;48.200;12.418;2024-01-30T12:58:41;5.43;;;2.00;;
50976;SDS011;36992;48.200;12.418;2024-01-30T13:01:08;5.30;;;1.90;;
50976;SDS011;36992;48.200;12.418;2024-01-30T13:03:35;5.75;;;2.08;;
50976;SDS011;36992;48.200;12.418;2024-01-30T13:06:02;4.90;;;2.47;;
50976;SDS011;36992;48.200;12.418;2024-01-30T13:08:28;8.63;;;2.20;;
50976;SDS011;36992;48.200;12.418;2024-01-30T13:10:55;5.15;;;2.55;;
50976;SDS011;36992;48.200;12.418;2024-01-30T13:13:21;5.05;;;2.60;;
50976;SDS011;36992;48.200;12.418;2024-01-30T13:15:50;6.13;;;2.33;;
50976;SDS011;36992;48.200;12.418;2024-01-30T13:18:16;5.05;;;1.90;;
50976;SDS011;36992;48.200;12.418;2024-01-30T13:20:43;5.78;;;2.15;;
50976;SDS011;36992;48.200;12.418;2024-01-30T13:23:09;4.28;;;2.05;;
50976;SDS011;36992;48.200;12.418;2024-01-30T13:25:36;4.43;;;1.98;;
50976;SDS011;36992;48.200;12.418;2024-01-30T13:28:02;3.92;;;1.52;;
50976;SDS011;36992;48.200;12.418;2024-01-30T13:30:29;7.25;;;2.33;;
50976;SDS011;36992;48.200;12.418;2024-01-30T13:32:57;6.90;;;2.15;;
50976;SDS011;36992;48.200;12.418;2024-01-30T13:35:24;4.75;;;2.03;;
50976;SDS011;36992;48.200;12.418;2024-01-30T13:37:50;5.03;;;1.98;;
50976;SDS011;36992;48.200;12.418;2024-01-30T13:40:17;7.20;;;2.53;;
50976;SDS011;36992;48.200;12.418;2024-01-30T13:42:43;6.25;;;2.38;;
50976;SDS011;36992;48.200;12.418;2024-01-30T13:45:10;6.10;;;2.22;;
50976;SDS011;36992;48.200;12.418;2024-01-30T13:47:36;4.50;;;1.92;;
50976;SDS011;36992;48.200;12.418;2024-01-30T13:50:05;5.03;;;2.05;;
50976;SDS011;36992;48.200;12.418;2024-01-30T13:52:32;5.78;;;2.65;;
50976;SDS011;36992;48.200;12.418;2024-01-30T13:54:59;5.55;;;2.28;;
50976;SDS011;36992;48.200;12.418;2024-01-30T13:57:25;6.32;;;2.55;;
50976;SDS011;36992;48.200;12.418;2024-01-30T13:59:52;5.95;;;2.28;;
50976;SDS011;36992;48.200;12.418;2024-01-30T14:02:19;5.97;;;2.40;;
50976;SDS011;36992;48.200;12.418;2024-01-30T14:04:45;5.65;;;2.28;;
50976;SDS011;36992;48.200;12.418;2024-01-30T14:07:13;6.28;;;3.15;;
50976;SDS011;36992;48.200;12.418;2024-01-30T14:09:39;5.72;;;2.95;;
50976;SDS011;36992;48.200;12.418;2024-01-30T14:12:06;5.13;;;2.22;;
50976;SDS011;36992;48.200;12.418;2024-01-30T14:14:33;4.45;;;2.10;;
50976;SDS011;36992;48.200;12.418;2024-01-30T14:17:00;7.65;;;2.83;;
50976;SDS011;36992;48.200;12.418;2024-01-30T14:19:26;6.55;;;2.47;;
50976;SDS011;36992;48.200;12.418;2024-01-30T14:21:53;7.07;;;2.20;;
50976;SDS011;36992;48.200;12.418;2024-01-30T14:24:20;6.35;;;2.65;;
50976;SDS011;36992;48.200;12.418;2024-01-30T14:26:47;6.55;;;2.58;;
50976;SDS011;36992;48.200;12.418;2024-01-30T14:29:14;7.57;;;2.80;;
50976;SDS011;36992;48.200;12.418;2024-01-30T14:31:40;5.85;;;2.65;;